sensor_id;sensor_type;location;lat;lon;timestamp;pressure;altitude;pressure_sealevel;temperature;humidity
45345;BME280;31078;48.304;11.896;2023-01-09T00:02:05;94654.78;;;3.13;98.59
45345;BME280;31078;48.304;11.896;2023-01-09T00:04:31;94653.19;;;3.12;97.92
45345;BME280;31078;48.304;11.896;2023-01-09T00:06:58;94656.97;;;3.11;97.94
45345;BME280;31078;48.304;11.896;2023-01-09T00:09:24;94648.41;;;3.01;97.94
45345;BME280;31078;48.304;11.896;2023-01-09T00:11:51;94656.31;;;3.06;97.99
45345;BME280;31078;48.304;11.896;2023-01-09T00:14:19;94652.38;;;3.12;97.89
45345;BME280;31078;48.304;11.896;2023-01-09T00:16:47;94663.31;;;3.16;97.68
45345;BME280;31078;48.304;11.896;2023-01-09T00:19:16;94661.91;;;3.18;97.45
45345;BME280;31078;48.304;11.896;2023-01-09T00:21:43;94665.09;;;3.20;97.11
45345;BME280;31078;48.304;11.896;2023-01-09T00:24:09;94660.50;;;3.21;97.30
45345;BME280;31078;48.304;11.896;2023-01-09T00:26:36;94659.88;;;3.24;96.93
45345;BME280;31078;48.304;11.896;2023-01-09T00:29:03;94668.25;;;3.22;96.96
45345;BME280;31078;48.304;11.896;2023-01-09T00:31:29;94679.97;;;3.26;97.15
45345;BME280;31078;48.304;11.896;2023-01-09T00:33:58;94675.56;;;3.30;96.40
45345;BME280;31078;48.304;11.896;2023-01-09T00:36:27;94680.44;;;3.28;96.16
45345;BME280;31078;48.304;11.896;2023-01-09T00:38:54;94686.13;;;3.27;95.91
45345;BME280;31078;48.304;11.896;2023-01-09T00:41:23;94687.44;;;3.29;95.67
45345;BME280;31078;48.304;11.896;2023-01-09T00:43:53;94691.84;;;3.25;95.60
45345;BME280;31078;48.304;11.896;2023-01-09T00:46:25;94695.94;;;3.23;95.77
45345;BME280;31078;48.304;11.896;2023-01-09T00:48:54;94705.56;;;3.15;95.80
45345;BME280;31078;48.304;11.896;2023-01-09T00:51:21;94709.63;;;3.04;96.76
45345;BME280;31078;48.304;11.896;2023-01-09T00:53:50;94714.03;;;3.00;97.70
45345;BME280;31078;48.304;11.896;2023-01-09T00:56:20;94720.47;;;2.90;97.93
45345;BME280;31078;48.304;11.896;2023-01-09T00:58:48;94718.56;;;2.82;98.97
45345;BME280;31078;48.304;11.896;2023-01-09T01:01:18;94713.47;;;2.80;99.50
45345;BME280;31078;48.304;11.896;2023-01-09T01:03:44;94720.56;;;2.76;99.95
45345;BME280;31078;48.304;11.896;2023-01-09T01:06:11;94714.50;;;2.93;99.54
45345;BME280;31078;48.304;11.896;2023-01-09T01:08:52;94717.97;;;2.94;99.10
45345;BME280;31078;48.304;11.896;2023-01-09T01:11:20;94719.59;;;3.03;99.16
45345;BME280;31078;48.304;11.896;2023-01-09T01:13:47;94708.47;;;2.96;99.68
45345;BME280;31078;48.304;11.896;2023-01-09T01:16:13;94708.22;;;3.06;99.26
45345;BME280;31078;48.304;11.896;2023-01-09T01:18:40;94699.41;;;3.14;98.85
45345;BME280;31078;48.304;11.896;2023-01-09T01:21:07;94703.50;;;3.12;98.72
45345;BME280;31078;48.304;11.896;2023-01-09T01:23:34;94701.16;;;3.19;98.69
45345;BME280;31078;48.304;11.896;2023-01-09T01:26:07;94691.81;;;3.17;98.39
45345;BME280;31078;48.304;11.896;2023-01-09T01:28:34;94705.91;;;3.22;98.58
45345;BME280;31078;48.304;11.896;2023-01-09T01:31:00;94700.69;;;3.26;98.16
45345;BME280;31078;48.304;11.896;2023-01-09T01:33:27;94684.75;;;3.29;97.59
45345;BME280;31078;48.304;11.896;2023-01-09T01:36:05;94689.00;;;3.30;97.12
45345;BME280;31078;48.304;11.896;2023-01-09T01:38:32;94691.53;;;3.27;97.53
45345;BME280;31078;48.304;11.896;2023-01-09T01:40:59;94693.88;;;3.28;97.35
45345;BME280;31078;48.304;11.896;2023-01-09T01:43:47;94685.34;;;3.26;97.43
45345;BME280;31078;48.304;11.896;2023-01-09T01:46:14;94684.25;;;3.27;97.44
45345;BME280;31078;48.304;11.896;2023-01-09T01:48:44;94682.50;;;3.31;97.32
45345;BME280;31078;48.304;11.896;2023-01-09T01:51:12;94690.41;;;3.19;97.63
45345;BME280;31078;48.304;11.896;2023-01-09T01:53:42;94690.13;;;3.29;97.49
45345;BME280;31078;48.304;11.896;2023-01-09T01:56:14;94685.06;;;3.36;97.06
45345;BME280;31078;48.304;11.896;2023-01-09T01:58:45;94670.50;;;3.37;96.89
45345;BME280;31078;48.304;11.896;2023-01-09T02:01:16;94662.94;;;3.39;97.44
45345;BME280;31078;48.304;11.896;2023-01-09T02:03:43;94668.63;;;3.47;97.26
45345;BME280;31078;48.304;11.896;2023-01-09T02:06:11;94672.56;;;3.49;97.06
45345;BME280;31078;48.304;11.896;2023-01-09T02:08:37;94664.22;;;3.51;96.88
45345;BME280;31078;48.304;11.896;2023-01-09T02:11:04;94662.59;;;3.50;97.19
45345;BME280;31078;48.304;11.896;2023-01-09T02:13:31;94671.16;;;3.52;97.25
45345;BME280;31078;48.304;11.896;2023-01-09T02:16:13;94680.50;;;3.46;97.09
45345;BME280;31078;48.304;11.896;2023-01-09T02:18:46;94678.59;;;3.46;97.07
45345;BME280;31078;48.304;11.896;2023-01-09T02:21:23;94679.25;;;3.52;96.75
45345;BME280;31078;48.304;11.896;2023-01-09T02:24:25;94666.41;;;3.49;96.53
45345;BME280;31078;48.304;11.896;2023-01-09T02:30:24;94653.09;;;3.44;97.11
45345;BME280;31078;48.304;11.896;2023-01-09T02:32:59;94675.69;;;3.25;97.43
45345;BME280;31078;48.304;11.896;2023-01-09T02:35:46;94681.03;;;3.17;98.68
45345;BME280;31078;48.304;11.896;2023-01-09T02:38:21;94671.34;;;3.07;99.65
45345;BME280;31078;48.304;11.896;2023-01-09T02:40:53;94676.44;;;3.08;100.00
45345;BME280;31078;48.304;11.896;2023-01-09T02:43:25;94667.41;;;3.04;100.00
45345;BME280;31078;48.304;11.896;2023-01-09T02:45:53;94680.63;;;2.92;100.00
45345;BME280;31078;48.304;11.896;2023-01-09T02:48:22;94677.97;;;3.01;100.00
45345;BME280;31078;48.304;11.896;2023-01-09T02:50:55;94667.72;;;3.11;100.00
45345;BME280;31078;48.304;11.896;2023-01-09T02:53:43;94672.59;;;3.01;100.00
45345;BME280;31078;48.304;11.896;2023-01-09T02:56:38;94674.53;;;3.09;100.00
45345;BME280;31078;48.304;11.896;2023-01-09T02:59:28;94670.69;;;2.93;100.00
45345;BME280;31078;48.304;11.896;2023-01-09T03:02:09;94666.91;;;3.02;100.00
45345;BME280;31078;48.304;11.896;2023-01-09T03:04:47;94675.66;;;3.17;100.00
45345;BME280;31078;48.304;11.896;2023-01-09T03:07:21;94671.56;;;3.19;100.00
45345;BME280;31078;48.304;11.896;2023-01-09T03:09:54;94675.19;;;3.23;99.95
45345;BME280;31078;48.304;11.896;2023-01-09T03:12:23;94673.00;;;3.25;100.00
45345;BME280;31078;48.304;11.896;2023-01-09T03:14:55;94676.16;;;3.27;100.00
45345;BME280;31078;48.304;11.896;2023-01-09T03:17:28;94675.69;;;3.25;100.00
45345;BME280;31078;48.304;11.896;2023-01-09T03:19:56;94671.09;;;3.26;99.86
45345;BME280;31078;48.304;11.896;2023-01-09T03:22:24;94673.00;;;3.25;100.00
45345;BME280;31078;48.304;11.896;2023-01-09T03:24:50;94668.41;;;3.26;100.00
45345;BME280;31078;48.304;11.896;2023-01-09T03:27:17;94665.91;;;3.29;100.00
45345;BME280;31078;48.304;11.896;2023-01-09T03:29:44;94665.75;;;3.34;100.00
45345;BME280;31078;48.304;11.896;2023-01-09T03:32:11;94661.78;;;3.32;99.89
45345;BME280;31078;48.304;11.896;2023-01-09T03:34:40;94664.78;;;3.30;100.00
45345;BME280;31078;48.304;11.896;2023-01-09T03:37:07;94669.53;;;3.33;100.00
45345;BME280;31078;48.304;11.896;2023-01-09T03:39:33;94667.00;;;3.37;100.00
45345;BME280;31078;48.304;11.896;2023-01-09T03:42:00;94659.13;;;3.40;100.00
45345;BME280;31078;48.304;11.896;2023-01-09T03:44:27;94666.09;;;3.42;100.00
45345;BME280;31078;48.304;11.896;2023-01-09T03:46:53;94658.00;;;3.42;100.00
45345;BME280;31078;48.304;11.896;2023-01-09T03:49:20;94657.84;;;3.47;100.00
45345;BME280;31078;48.304;11.896;2023-01-09T03:51:48;94664.22;;;3.51;99.83
45345;BME280;31078;48.304;11.896;2023-01-09T03:54:14;94650.44;;;3.52;100.00
45345;BME280;31078;48.304;11.896;2023-01-09T03:56:41;94648.06;;;3.51;99.89
45345;BME280;31078;48.304;11.896;2023-01-09T03:59:07;94662.13;;;3.48;100.00
45345;BME280;31078;48.304;11.896;2023-01-09T04:01:34;94651.84;;;3.50;100.00
45345;BME280;31078;48.304;11.896;2023-01-09T04:04:01;94655.34;;;3.50;100.00
45345;BME280;31078;48.304;11.896;2023-01-09T04:06:27;94660.56;;;3.55;100.00
45345;BME280;31078;48.304;11.896;2023-01-09T04:08:55;94653.13;;;3.52;100.00
45345;BME280;31078;48.304;11.896;2023-01-09T04:11:22;94653.91;;;3.53;100.00
45345;BME280;31078;48.304;11.896;2023-01-09T04:13:48;94656.59;;;3.53;100.00
45345;BME280;31078;48.304;11.896;2023-01-09T04:16:15;94656.59;;;3.53;100.00
45345;BME280;31078;48.304;11.896;2023-01-09T04:18:41;94667.19;;;3.49;100.00
45345;BME280;31078;48.304;11.896;2023-01-09T04:21:08;94669.59;;;3.51;100.00
45345;BME280;31078;48.304;11.896;2023-01-09T04:23:34;94678.13;;;3.53;100.00
45345;BME280;31078;48.304;11.896;2023-01-09T04:26:02;94675.75;;;3.51;100.00
45345;BME280;31078;48.304;11.896;2023-01-09T04:28:29;94675.44;;;3.53;100.00
45345;BME280;31078;48.304;11.896;2023-01-09T04:30:55;94671.63;;;3.54;100.00
45345;BME280;31078;48.304;11.896;2023-01-09T04:33:22;94671.47;;;3.59;100.00
45345;BME280;31078;48.304;11.896;2023-01-09T04:35:49;94668.63;;;3.64;100.00
45345;BME280;31078;48.304;11.896;2023-01-09T04:38:15;94676.44;;;3.65;100.00
45345;BME280;31078;48.304;11.896;2023-01-09T04:40:42;94678.78;;;3.67;100.00
45345;BME280;31078;48.304;11.896;2023-01-09T04:43:10;94696.69;;;3.72;100.00
45345;BME280;31078;48.304;11.896;2023-01-09T04:45:37;94708.25;;;3.72;100.00
45345;BME280;31078;48.304;11.896;2023-01-09T04:48:04;94715.22;;;3.73;100.00
45345;BME280;31078;48.304;11.896;2023-01-09T04:50:30;94723.75;;;3.75;100.00
45345;BME280;31078;48.304;11.896;2023-01-09T04:52:57;94718.22;;;3.80;100.00
45345;BME280;31078;48.304;11.896;2023-01-09T04:55:23;94717.75;;;3.78;100.00
45345;BME280;31078;48.304;11.896;2023-01-09T04:57:50;94727.25;;;3.84;100.00
45345;BME280;31078;48.304;11.896;2023-01-09T05:00:18;94721.72;;;3.89;100.00
45345;BME280;31078;48.304;11.896;2023-01-09T05:02:45;94711.44;;;3.91;100.00
45345;BME280;31078;48.304;11.896;2023-01-09T05:05:12;94722.84;;;3.88;100.00
45345;BME280;31078;48.304;11.896;2023-01-09T05:07:38;94719.22;;;3.93;100.00
45345;BME280;31078;48.304;11.896;2023-01-09T05:10:06;94725.69;;;4.01;99.95
45345;BME280;31078;48.304;11.896;2023-01-09T05:12:33;94740.78;;;4.19;99.41
45345;BME280;31078;48.304;11.896;2023-01-09T05:15:00;94750.44;;;4.20;99.28
45345;BME280;31078;48.304;11.896;2023-01-09T05:17:28;94761.22;;;4.29;99.01
45345;BME280;31078;48.304;11.896;2023-01-09T05:19:55;94766.78;;;4.41;98.78
45345;BME280;31078;48.304;11.896;2023-01-09T05:22:21;94767.88;;;4.49;98.55
45345;BME280;31078;48.304;11.896;2023-01-09T05:24:48;94779.44;;;4.58;98.15
45345;BME280;31078;48.304;11.896;2023-01-09T05:27:14;94786.41;;;4.67;97.83
45345;BME280;31078;48.304;11.896;2023-01-09T05:29:41;94788.63;;;4.74;96.89
45345;BME280;31078;48.304;11.896;2023-01-09T05:32:07;94789.25;;;4.80;97.05
45345;BME280;31078;48.304;11.896;2023-01-09T05:34:35;94785.47;;;4.81;96.84
45345;BME280;31078;48.304;11.896;2023-01-09T05:37:01;94789.41;;;4.83;97.42
45345;BME280;31078;48.304;11.896;2023-01-09T05:39:28;94801.16;;;4.87;97.00
45345;BME280;31078;48.304;11.896;2023-01-09T05:41:54;94803.69;;;4.92;96.90
45345;BME280;31078;48.304;11.896;2023-01-09T05:44:21;94813.69;;;4.92;97.13
45345;BME280;31078;48.304;11.896;2023-01-09T05:46:47;94816.22;;;4.97;97.01
45345;BME280;31078;48.304;11.896;2023-01-09T05:49:14;94824.91;;;5.11;96.29
45345;BME280;31078;48.304;11.896;2023-01-09T05:51:42;94816.94;;;5.32;94.95
45345;BME280;31078;48.304;11.896;2023-01-09T05:54:09;94833.09;;;5.49;94.11
45345;BME280;31078;48.304;11.896;2023-01-09T05:56:35;94837.19;;;5.56;93.67
45345;BME280;31078;48.304;11.896;2023-01-09T05:59:02;94839.88;;;5.64;93.69
45345;BME280;31078;48.304;11.896;2023-01-09T06:01:28;94836.00;;;5.74;92.63
45345;BME280;31078;48.304;11.896;2023-01-09T06:03:54;94852.69;;;5.76;93.18
45345;BME280;31078;48.304;11.896;2023-01-09T06:06:21;94847.88;;;5.90;91.49
45345;BME280;31078;48.304;11.896;2023-01-09T06:08:49;94848.97;;;5.98;90.30
45345;BME280;31078;48.304;11.896;2023-01-09T06:11:16;94859.00;;;5.97;90.02
45345;BME280;31078;48.304;11.896;2023-01-09T06:13:42;94871.88;;;6.00;88.92
45345;BME280;31078;48.304;11.896;2023-01-09T06:16:09;94860.56;;;5.98;89.04
45345;BME280;31078;48.304;11.896;2023-01-09T06:18:35;94860.13;;;5.96;89.13
45345;BME280;31078;48.304;11.896;2023-01-09T06:21:02;94864.25;;;5.94;89.20
45345;BME280;31078;48.304;11.896;2023-01-09T06:23:29;94878.09;;;5.92;88.83
45345;BME280;31078;48.304;11.896;2023-01-09T06:25:57;94886.19;;;5.84;89.81
45345;BME280;31078;48.304;11.896;2023-01-09T06:28:23;94887.03;;;5.67;91.97
45345;BME280;31078;48.304;11.896;2023-01-09T06:30:51;94883.56;;;5.58;92.80
45345;BME280;31078;48.304;11.896;2023-01-09T06:33:17;94896.31;;;5.48;93.37
45345;BME280;31078;48.304;11.896;2023-01-09T06:35:44;94906.94;;;5.36;94.94
45345;BME280;31078;48.304;11.896;2023-01-09T06:38:10;94911.22;;;5.37;94.43
45345;BME280;31078;48.304;11.896;2023-01-09T06:40:37;94911.25;;;5.29;94.63
45345;BME280;31078;48.304;11.896;2023-01-09T06:43:05;94911.56;;;5.36;93.17
45345;BME280;31078;48.304;11.896;2023-01-09T06:45:32;94928.38;;;5.41;92.56
45345;BME280;31078;48.304;11.896;2023-01-09T06:47:59;94930.91;;;5.46;91.00
45345;BME280;31078;48.304;11.896;2023-01-09T06:50:26;94937.72;;;5.70;84.38
45345;BME280;31078;48.304;11.896;2023-01-09T06:52:52;94930.84;;;5.81;82.85
45345;BME280;31078;48.304;11.896;2023-01-09T06:55:19;94929.91;;;5.77;82.77
45345;BME280;31078;48.304;11.896;2023-01-09T06:57:45;94932.16;;;5.75;82.19
45345;BME280;31078;48.304;11.896;2023-01-09T07:00:14;94941.34;;;5.74;82.18
45345;BME280;31078;48.304;11.896;2023-01-09T07:02:41;94951.22;;;5.70;82.46
45345;BME280;31078;48.304;11.896;2023-01-09T07:05:07;94948.03;;;5.68;82.97
45345;BME280;31078;48.304;11.896;2023-01-09T07:07:36;94954.38;;;5.72;81.49
45345;BME280;31078;48.304;11.896;2023-01-09T07:10:03;94964.22;;;5.68;83.02
45345;BME280;31078;48.304;11.896;2023-01-09T07:12:29;94962.50;;;5.63;82.09
45345;BME280;31078;48.304;11.896;2023-01-09T07:14:56;94972.69;;;5.49;83.52
45345;BME280;31078;48.304;11.896;2023-01-09T07:17:24;94979.50;;;5.46;83.37
45345;BME280;31078;48.304;11.896;2023-01-09T07:19:50;94971.75;;;5.45;82.81
45345;BME280;31078;48.304;11.896;2023-01-09T07:22:17;94974.91;;;5.47;82.74
45345;BME280;31078;48.304;11.896;2023-01-09T07:24:44;94986.34;;;5.35;84.11
45345;BME280;31078;48.304;11.896;2023-01-09T07:27:11;94991.13;;;5.38;83.64
45345;BME280;31078;48.304;11.896;2023-01-09T07:29:38;95003.16;;;5.41;83.33
45345;BME280;31078;48.304;11.896;2023-01-09T07:32:05;95004.63;;;5.38;83.34
45345;BME280;31078;48.304;11.896;2023-01-09T07:34:33;95009.38;;;5.33;84.48
45345;BME280;31078;48.304;11.896;2023-01-09T07:36:59;95010.47;;;5.32;85.24
45345;BME280;31078;48.304;11.896;2023-01-09T07:39:26;95016.34;;;5.25;85.67
45345;BME280;31078;48.304;11.896;2023-01-09T07:41:52;95023.34;;;5.17;87.17
45345;BME280;31078;48.304;11.896;2023-01-09T07:44:19;95032.03;;;5.06;87.94
45345;BME280;31078;48.304;11.896;2023-01-09T07:46:45;95044.22;;;4.94;89.15
45345;BME280;31078;48.304;11.896;2023-01-09T07:49:12;95045.16;;;4.81;91.71
45345;BME280;31078;48.304;11.896;2023-01-09T07:51:40;95049.25;;;4.70;93.09
45345;BME280;31078;48.304;11.896;2023-01-09T07:54:09;95051.13;;;4.61;95.02
45345;BME280;31078;48.304;11.896;2023-01-09T07:56:37;95062.03;;;4.56;95.82
45345;BME280;31078;48.304;11.896;2023-01-09T07:59:03;95061.25;;;4.55;96.11
45345;BME280;31078;48.304;11.896;2023-01-09T08:01:30;95066.47;;;4.52;96.23
45345;BME280;31078;48.304;11.896;2023-01-09T08:03:56;95066.94;;;4.54;95.42
45345;BME280;31078;48.304;11.896;2023-01-09T08:06:23;95064.38;;;4.49;97.06
45345;BME280;31078;48.304;11.896;2023-01-09T08:08:51;95067.84;;;4.40;97.41
45345;BME280;31078;48.304;11.896;2023-01-09T08:11:17;95066.59;;;4.47;95.73
45345;BME280;31078;48.304;11.896;2023-01-09T08:13:44;95080.38;;;4.45;95.26
45345;BME280;31078;48.304;11.896;2023-01-09T08:16:10;95084.34;;;4.48;95.55
45345;BME280;31078;48.304;11.896;2023-01-09T08:18:37;95090.72;;;4.52;94.74
45345;BME280;31078;48.304;11.896;2023-01-09T08:21:04;95099.28;;;4.54;94.68
45345;BME280;31078;48.304;11.896;2023-01-09T08:23:30;95107.88;;;4.56;94.34
45345;BME280;31078;48.304;11.896;2023-01-09T08:25:58;95110.25;;;4.57;93.86
45345;BME280;31078;48.304;11.896;2023-01-09T08:28:25;95111.03;;;4.58;93.24
45345;BME280;31078;48.304;11.896;2023-01-09T08:30:51;95119.13;;;4.58;93.00
45345;BME280;31078;48.304;11.896;2023-01-09T08:33:18;95112.63;;;4.59;92.67
45345;BME280;31078;48.304;11.896;2023-01-09T08:35:44;95124.38;;;4.63;90.63
45345;BME280;31078;48.304;11.896;2023-01-09T08:38:11;95122.19;;;4.65;88.70
45345;BME280;31078;48.304;11.896;2023-01-09T08:40:38;95129.91;;;4.58;86.22
45345;BME280;31078;48.304;11.896;2023-01-09T08:43:06;95140.47;;;4.45;84.56
45345;BME280;31078;48.304;11.896;2023-01-09T08:45:50;95141.22;;;4.37;85.20
45345;BME280;31078;48.304;11.896;2023-01-09T08:48:36;95152.00;;;4.37;84.26
45345;BME280;31078;48.304;11.896;2023-01-09T08:51:03;95152.91;;;4.33;84.92
45345;BME280;31078;48.304;11.896;2023-01-09T08:53:29;95147.47;;;4.24;86.03
45345;BME280;31078;48.304;11.896;2023-01-09T08:55:56;95153.25;;;4.09;88.76
45345;BME280;31078;48.304;11.896;2023-01-09T08:58:24;95142.81;;;3.93;92.64
45345;BME280;31078;48.304;11.896;2023-01-09T09:00:52;95155.28;;;3.89;94.10
45345;BME280;31078;48.304;11.896;2023-01-09T09:03:19;95144.63;;;3.84;94.31
45345;BME280;31078;48.304;11.896;2023-01-09T09:05:46;95137.06;;;3.86;94.47
45345;BME280;31078;48.304;11.896;2023-01-09T09:08:12;95139.44;;;3.88;95.33
45345;BME280;31078;48.304;11.896;2023-01-09T09:10:39;95140.91;;;3.94;95.12
45345;BME280;31078;48.304;11.896;2023-01-09T09:13:06;95150.00;;;3.98;95.33
45345;BME280;31078;48.304;11.896;2023-01-09T09:15:34;95148.56;;;4.01;95.13
45345;BME280;31078;48.304;11.896;2023-01-09T09:18:04;95147.19;;;4.03;95.76
45345;BME280;31078;48.304;11.896;2023-01-09T09:20:32;95137.69;;;4.06;94.59
45345;BME280;31078;48.304;11.896;2023-01-09T09:23:00;95152.59;;;4.12;93.74
45345;BME280;31078;48.304;11.896;2023-01-09T09:25:27;95152.50;;;4.17;92.24
45345;BME280;31078;48.304;11.896;2023-01-09T09:27:53;95155.38;;;4.21;91.53
45345;BME280;31078;48.304;11.896;2023-01-09T09:30:21;95149.56;;;4.27;90.85
45345;BME280;31078;48.304;11.896;2023-01-09T09:32:49;95154.22;;;4.35;90.27
45345;BME280;31078;48.304;11.896;2023-01-09T09:35:16;95154.69;;;4.37;89.22
45345;BME280;31078;48.304;11.896;2023-01-09T09:37:51;95155.66;;;4.41;89.26
45345;BME280;31078;48.304;11.896;2023-01-09T09:40:26;95167.44;;;4.45;88.81
45345;BME280;31078;48.304;11.896;2023-01-09T09:43:15;95179.19;;;4.50;87.02
45345;BME280;31078;48.304;11.896;2023-01-09T09:46:10;95187.31;;;4.58;86.25
45345;BME280;31078;48.304;11.896;2023-01-09T09:48:49;95170.84;;;4.60;84.18
45345;BME280;31078;48.304;11.896;2023-01-09T09:51:34;95171.69;;;4.69;83.58
45345;BME280;31078;48.304;11.896;2023-01-09T09:54:09;95154.13;;;4.80;83.45
45345;BME280;31078;48.304;11.896;2023-01-09T09:56:47;95161.59;;;4.83;80.27
45345;BME280;31078;48.304;11.896;2023-01-09T09:59:17;95165.59;;;4.86;80.19
45345;BME280;31078;48.304;11.896;2023-01-09T10:01:50;95149.56;;;4.89;78.67
45345;BME280;31078;48.304;11.896;2023-01-09T10:04:22;95144.34;;;4.93;77.00
45345;BME280;31078;48.304;11.896;2023-01-09T10:06:55;95131.53;;;4.98;75.04
45345;BME280;31078;48.304;11.896;2023-01-09T10:09:35;95128.34;;;4.96;74.90
45345;BME280;31078;48.304;11.896;2023-01-09T10:12:14;95128.34;;;4.96;73.55
45345;BME280;31078;48.304;11.896;2023-01-09T10:14:42;95145.81;;;4.99;71.95
45345;BME280;31078;48.304;11.896;2023-01-09T10:17:18;95147.09;;;5.02;71.04
45345;BME280;31078;48.304;11.896;2023-01-09T10:20:07;95164.25;;;5.06;72.03
45345;BME280;31078;48.304;11.896;2023-01-09T10:22:44;95174.47;;;5.17;70.93
45345;BME280;31078;48.304;11.896;2023-01-09T10:25:21;95167.28;;;5.13;69.55
45345;BME280;31078;48.304;11.896;2023-01-09T10:28:03;95163.00;;;5.12;70.19
45345;BME280;31078;48.304;11.896;2023-01-09T10:30:39;95165.06;;;5.15;69.48
45345;BME280;31078;48.304;11.896;2023-01-09T10:33:18;95157.63;;;5.12;70.18
45345;BME280;31078;48.304;11.896;2023-01-09T10:36:09;95156.78;;;5.11;70.26
45345;BME280;31078;48.304;11.896;2023-01-09T10:38:42;95160.78;;;5.14;71.23
45345;BME280;31078;48.304;11.896;2023-01-09T10:41:13;95168.88;;;5.14;71.29
45345;BME280;31078;48.304;11.896;2023-01-09T10:43:45;95172.06;;;5.16;71.93
45345;BME280;31078;48.304;11.896;2023-01-09T10:46:18;95169.34;;;5.16;70.13
45345;BME280;31078;48.304;11.896;2023-01-09T10:48:48;95167.94;;;5.18;71.55
45345;BME280;31078;48.304;11.896;2023-01-09T10:51:21;95166.66;;;5.16;70.82
45345;BME280;31078;48.304;11.896;2023-01-09T10:53:50;95156.38;;;5.18;70.07
45345;BME280;31078;48.304;11.896;2023-01-09T10:56:21;95163.34;;;5.19;69.39
45345;BME280;31078;48.304;11.896;2023-01-09T10:58:49;95163.81;;;5.21;69.73
45345;BME280;31078;48.304;11.896;2023-01-09T11:01:17;95162.72;;;5.22;69.83
45345;BME280;31078;48.304;11.896;2023-01-09T11:03:45;95155.72;;;5.21;70.52
45345;BME280;31078;48.304;11.896;2023-01-09T11:06:19;95155.72;;;5.21;70.84
45345;BME280;31078;48.304;11.896;2023-01-09T11:08:48;95158.94;;;5.32;70.65
45345;BME280;31078;48.304;11.896;2023-01-09T11:11:32;95159.88;;;5.27;70.62
45345;BME280;31078;48.304;11.896;2023-01-09T11:14:04;95157.47;;;5.26;71.26
45345;BME280;31078;48.304;11.896;2023-01-09T11:16:30;95150.19;;;5.26;71.04
45345;BME280;31078;48.304;11.896;2023-01-09T11:18:59;95153.06;;;5.30;70.94
45345;BME280;31078;48.304;11.896;2023-01-09T11:21:31;95151.63;;;5.32;71.39
45345;BME280;31078;48.304;11.896;2023-01-09T11:26:46;95148.84;;;5.55;71.00
45345;BME280;31078;48.304;11.896;2023-01-09T11:29:14;95158.66;;;5.50;70.79
45345;BME280;31078;48.304;11.896;2023-01-09T11:31:42;95160.59;;;5.59;70.81
45345;BME280;31078;48.304;11.896;2023-01-09T11:34:16;95163.94;;;5.64;70.00
45345;BME280;31078;48.304;11.896;2023-01-09T11:36:46;95169.84;;;5.75;69.16
45345;BME280;31078;48.304;11.896;2023-01-09T11:39:21;95170.47;;;5.72;67.85
45345;BME280;31078;48.304;11.896;2023-01-09T11:41:52;95167.59;;;5.77;68.03
45345;BME280;31078;48.304;11.896;2023-01-09T11:44:19;95166.03;;;5.85;66.71
45345;BME280;31078;48.304;11.896;2023-01-09T11:46:46;95163.34;;;5.93;66.35
45345;BME280;31078;48.304;11.896;2023-01-09T11:49:22;95158.22;;;5.83;66.41
45345;BME280;31078;48.304;11.896;2023-01-09T11:52:17;95165.88;;;5.81;66.99
45345;BME280;31078;48.304;11.896;2023-01-09T11:54:48;95158.72;;;5.85;66.86
45345;BME280;31078;48.304;11.896;2023-01-09T11:57:16;95161.59;;;5.80;66.55
45345;BME280;31078;48.304;11.896;2023-01-09T11:59:43;95166.50;;;5.78;66.63
45345;BME280;31078;48.304;11.896;2023-01-09T12:02:31;95164.56;;;5.79;65.92
45345;BME280;31078;48.304;11.896;2023-01-09T12:05:10;95164.13;;;5.85;67.20
45345;BME280;31078;48.304;11.896;2023-01-09T12:07:59;95164.13;;;5.85;65.56
45345;BME280;31078;48.304;11.896;2023-01-09T12:10:51;95165.59;;;5.91;64.97
45345;BME280;31078;48.304;11.896;2023-01-09T12:13:32;95169.38;;;5.90;64.15
45345;BME280;31078;48.304;11.896;2023-01-09T12:16:12;95162.09;;;5.99;65.53
45345;BME280;31078;48.304;11.896;2023-01-09T12:18:56;95167.03;;;5.97;64.78
45345;BME280;31078;48.304;11.896;2023-01-09T12:21:32;95161.00;;;6.00;65.52
45345;BME280;31078;48.304;11.896;2023-01-09T12:24:23;95166.25;;;6.06;64.46
45345;BME280;31078;48.304;11.896;2023-01-09T12:27:02;95181.00;;;5.99;64.41
45345;BME280;31078;48.304;11.896;2023-01-09T12:29:48;95164.78;;;5.99;64.43
45345;BME280;31078;48.304;11.896;2023-01-09T12:32:26;95166.22;;;5.97;64.83
45345;BME280;31078;48.304;11.896;2023-01-09T12:35:02;95167.66;;;5.94;64.70
45345;BME280;31078;48.304;11.896;2023-01-09T12:37:52;95163.03;;;5.95;65.45
45345;BME280;31078;48.304;11.896;2023-01-09T12:40:44;95172.59;;;6.01;64.81
45345;BME280;31078;48.304;11.896;2023-01-09T12:43:21;95164.00;;;5.99;64.98
45345;BME280;31078;48.304;11.896;2023-01-09T12:46:01;95170.84;;;5.96;64.54
45345;BME280;31078;48.304;11.896;2023-01-09T12:48:45;95171.31;;;5.98;64.93
45345;BME280;31078;48.304;11.896;2023-01-09T12:51:24;95162.56;;;6.01;64.27
45345;BME280;31078;48.304;11.896;2023-01-09T12:53:58;95158.44;;;6.04;64.63
45345;BME280;31078;48.304;11.896;2023-01-09T12:56:30;95158.94;;;6.06;64.18
45345;BME280;31078;48.304;11.896;2023-01-09T12:59:00;95166.72;;;6.08;62.88
45345;BME280;31078;48.304;11.896;2023-01-09T13:01:33;95150.50;;;6.08;63.24
45345;BME280;31078;48.304;11.896;2023-01-09T13:04:08;95151.13;;;6.05;63.84
45345;BME280;31078;48.304;11.896;2023-01-09T13:06:39;95153.19;;;6.08;64.06
45345;BME280;31078;48.304;11.896;2023-01-09T13:09:18;95152.06;;;6.09;64.41
45345;BME280;31078;48.304;11.896;2023-01-09T13:11:53;95149.69;;;6.07;64.13
45345;BME280;31078;48.304;11.896;2023-01-09T13:14:36;95148.91;;;6.07;63.83
45345;BME280;31078;48.304;11.896;2023-01-09T13:17:06;95146.03;;;6.12;63.64
45345;BME280;31078;48.304;11.896;2023-01-09T13:19:37;95136.81;;;6.13;64.07
45345;BME280;31078;48.304;11.896;2023-01-09T13:22:05;95143.50;;;6.07;63.63